Disclaimer

Please do not use the information listed here in-flight or in-navigation, as they are not provided to us by the airports but are provided by volunteers, so they might be outdated.

Search


Regions


Airport information page

No radio frequency information is available.

Airport informations:
Latitude: 29° 05' 33.80" S
Longitude: 026° 18' 08.80" E
Elevation: 4458 feet - 1359 meters
Operating hours: Remarks
Operating agency: Military-civil joint use airport
Timezone: UTC+2
Fuel: Jet A1, without icing nhibitor.

100/130 MIL Spec, low lead, aviation gasoline (BLUE)

Runway information:
02/20 - 8396 x 151 feet< - >2559 x 46 meters
12/30 - 7202 x 151 feet< - >2195 x 46 meters

Recent METARs:
FABL 160000Z AUTO 07007KT //// // ////// 19/08 Q1022
FABL 160000Z AUTO 07007KT //// // ////// 19/08 Q1022
FABL 160000Z AUTO 07007KT //// // ////// 19/08 Q1022

Airport on the map: